Time;durP1;ratioP1;P1;durP2;ratioP2;P2;SDS_P1;SDS_P2;PMS_P1;PMS_P2;Temp;Humidity;BMP_temperature;BMP_pressure;BME280_temperature;BME280_humidity;BME280_pressure;Samples;Min_cycle;Max_cycle;Signal;HPM_P1;HPM_P2
2022/06/02 00:00:14;;;;;;;13.00;9.27;;;19.10;1.00;;;;;;4955138;29;20047;-94
2022/06/02 00:02:59;;;;;;;9.63;7.90;;;18.90;1.00;;;;;;4947016;28;20063;-94
2022/06/02 00:05:55;;;;;;;8.02;5.70;;;18.70;1.00;;;;;;4943585;28;20035;-95
2022/06/02 00:08:54;;;;;;;7.25;5.55;;;18.80;1.00;;;;;;4956502;29;20114;-95
2022/06/02 00:11:48;;;;;;;6.88;5.43;;;18.90;1.00;;;;;;4944585;29;20034;-94
2022/06/02 00:14:51;;;;;;;8.68;7.50;;;18.70;1.00;;;;;;4960137;28;20090;-94
2022/06/02 00:17:46;;;;;;;7.43;6.53;;;18.70;1.00;;;;;;4954181;29;20054;-94
2022/06/02 00:20:29;;;;;;;8.63;7.50;;;18.90;1.00;;;;;;4954505;28;20420;-92
2022/06/02 00:23:23;;;;;;;8.68;7.05;;;18.80;1.00;;;;;;4937736;29;20055;-95
2022/06/02 00:26:22;;;;;;;9.88;7.47;;;18.90;1.00;;;;;;4950013;29;20031;-95
2022/06/02 00:29:05;;;;;;;10.75;9.43;;;19.00;1.00;;;;;;4920149;29;20028;-95
2022/06/02 00:31:51;;;;;;;9.73;8.57;;;18.70;1.00;;;;;;4937361;29;20024;-95
2022/06/02 00:34:29;;;;;;;14.43;10.68;;;18.70;1.00;;;;;;4930386;29;20043;-95
2022/06/02 00:36:59;;;;;;;12.80;10.63;;;18.70;1.00;;;;;;4956438;29;20025;-94
2022/06/02 00:39:24;;;;;;;11.95;10.55;;;18.70;1.00;;;;;;4956320;29;20027;-93
2022/06/02 00:41:53;;;;;;;12.65;11.35;;;18.70;1.00;;;;;;4971523;28;20121;-94
2022/06/02 00:44:18;;;;;;;14.75;13.20;;;18.70;1.00;;;;;;4959833;28;20488;-94
2022/06/02 00:47:02;;;;;;;15.35;13.27;;;18.70;1.00;;;;;;4960713;28;20027;-94
2022/06/02 00:49:54;;;;;;;13.48;12.13;;;18.70;1.00;;;;;;4955755;29;20036;-93
2022/06/02 00:52:29;;;;;;;15.90;14.20;;;18.60;1.00;;;;;;4932219;28;20090;-94
2022/06/02 00:58:12;;;;;;;17.75;14.82;;;18.60;1.00;;;;;;4937810;29;20030;-94
2022/06/02 01:00:43;;;;;;;17.70;14.60;;;18.70;1.00;;;;;;4940397;29;20063;-94
2022/06/02 01:03:14;;;;;;;17.85;14.70;;;18.70;1.00;;;;;;4953277;29;20249;-93
2022/06/02 01:06:02;;;;;;;16.27;14.68;;;18.60;1.00;;;;;;4936564;29;20036;-93
2022/06/02 01:08:55;;;;;;;15.88;14.20;;;18.50;1.00;;;;;;4970931;28;20027;-93
2022/06/02 01:11:39;;;;;;;16.08;14.50;;;18.50;1.00;;;;;;4952964;28;20026;-93
2022/06/02 01:14:39;;;;;;;16.65;14.88;;;18.40;1.00;;;;;;4939110;29;20050;-94
2022/06/02 01:17:26;;;;;;;17.83;15.95;;;18.40;1.00;;;;;;4957793;28;20123;-93
2022/06/02 01:20:06;;;;;;;18.80;16.70;;;18.40;1.00;;;;;;4944646;28;20515;-93
2022/06/02 01:22:41;;;;;;;19.23;16.23;;;18.40;1.00;;;;;;4961339;28;20435;-94
2022/06/02 01:25:25;;;;;;;19.92;17.02;;;18.20;1.00;;;;;;4953909;29;20023;-93
2022/06/02 01:27:59;;;;;;;18.98;16.90;;;18.30;1.00;;;;;;4957749;28;20550;-93
2022/06/02 01:30:45;;;;;;;19.73;17.08;;;18.20;1.00;;;;;;4938923;29;20051;-94
2022/06/02 01:33:36;;;;;;;18.85;16.88;;;18.00;1.00;;;;;;4958133;28;20034;-93
2022/06/02 01:36:18;;;;;;;18.95;16.67;;;18.20;1.00;;;;;;4938856;29;20036;-93
2022/06/02 01:38:58;;;;;;;19.30;17.30;;;18.20;1.00;;;;;;4967273;28;20031;-93
2022/06/02 01:41:41;;;;;;;18.90;17.05;;;18.10;1.00;;;;;;4956433;29;20167;-93
2022/06/02 01:44:29;;;;;;;18.58;16.73;;;18.10;1.00;;;;;;4959384;28;20031;-92
2022/06/02 01:47:01;;;;;;;19.70;17.38;;;18.10;1.00;;;;;;4956277;28;20035;-93
2022/06/02 01:50:04;;;;;;;19.15;16.88;;;18.10;1.00;;;;;;4968611;28;20092;-93
2022/06/02 01:52:41;;;;;;;19.65;16.08;;;18.00;1.00;;;;;;4954611;28;20037;-93
2022/06/02 01:55:44;;;;;;;18.38;16.48;;;18.00;1.00;;;;;;4961570;28;20118;-93
2022/06/02 01:58:18;;;;;;;18.10;16.30;;;17.90;1.00;;;;;;4956086;28;20031;-93
2022/06/02 02:00:50;;;;;;;18.83;16.38;;;17.80;1.00;;;;;;4960197;28;20038;-93
2022/06/02 02:03:25;;;;;;;19.88;15.35;;;17.80;1.00;;;;;;4973654;28;20035;-93
2022/06/02 02:06:26;;;;;;;19.10;15.23;;;17.90;1.00;;;;;;4957430;29;20024;-93
2022/06/02 02:09:30;;;;;;;17.92;15.57;;;17.80;1.00;;;;;;4973060;28;20037;-93
2022/06/02 02:11:59;;;;;;;19.08;15.00;;;18.00;1.00;;;;;;4861827;29;20491;-93
2022/06/02 02:14:45;;;;;;;17.52;15.68;;;18.00;1.00;;;;;;4880621;29;20469;-93
2022/06/02 02:17:32;;;;;;;20.65;17.10;;;18.00;1.00;;;;;;4879027;29;20037;-93
2022/06/02 02:20:25;;;;;;;18.98;17.00;;;18.00;1.00;;;;;;4879768;29;20112;-93
2022/06/02 02:23:11;;;;;;;20.33;18.13;;;17.90;1.00;;;;;;4864715;29;20189;-93
2022/06/02 02:25:50;;;;;;;14.27;12.80;;;17.70;1.00;;;;;;4879124;29;20530;-93
2022/06/02 02:28:16;;;;;;;10.82;7.85;;;17.50;1.00;;;;;;4863508;29;20037;-94
2022/06/02 02:30:44;;;;;;;7.13;6.35;;;17.40;1.00;;;;;;4880090;29;20489;-92
2022/06/02 02:33:36;;;;;;;8.18;7.13;;;17.40;1.00;;;;;;4864597;29;20049;-94
2022/06/02 02:36:21;;;;;;;8.13;6.97;;;17.50;1.00;;;;;;4878560;29;20056;-94
2022/06/02 02:38:58;;;;;;;9.25;7.57;;;17.70;1.00;;;;;;4880358;29;20037;-95
2022/06/02 02:41:52;;;;;;;8.80;7.90;;;17.80;1.00;;;;;;4879852;29;20033;-95
2022/06/02 02:44:27;;;;;;;10.68;8.02;;;18.00;1.00;;;;;;4881200;29;20088;-96
2022/06/02 02:47:17;;;;;;;14.07;9.20;;;18.00;1.00;;;;;;4865947;29;20101;-95
2022/06/02 02:49:54;;;;;;;11.68;8.88;;;17.70;1.00;;;;;;4950928;28;20126;-96
2022/06/02 02:52:35;;;;;;;15.35;9.07;;;17.70;1.00;;;;;;4964936;28;20038;-95
2022/06/02 02:55:10;;;;;;;15.43;8.27;;;17.60;1.00;;;;;;4959776;28;20062;-95
2022/06/02 02:57:58;;;;;;;14.60;7.72;;;17.70;1.00;;;;;;4958169;29;20027;-95
2022/06/02 03:00:36;;;;;;;12.23;8.35;;;17.50;1.00;;;;;;4955309;29;20027;-96
2022/06/02 03:03:17;;;;;;;17.33;7.93;;;17.50;1.00;;;;;;4937410;29;20043;-95
2022/06/02 03:05:56;;;;;;;12.60;8.70;;;17.50;1.00;;;;;;4938662;29;20032;-95
2022/06/02 03:08:27;;;;;;;11.85;8.05;;;17.70;1.00;;;;;;4937484;29;20086;-94
2022/06/02 03:10:59;;;;;;;12.48;8.32;;;17.60;1.00;;;;;;4938588;29;20123;-95
2022/06/02 03:13:54;;;;;;;10.18;8.07;;;17.60;1.00;;;;;;4956044;28;20034;-95
2022/06/02 03:16:22;;;;;;;9.27;7.55;;;17.60;1.00;;;;;;4923947;29;20047;-95
2022/06/02 03:19:12;;;;;;;7.85;7.05;;;17.70;1.00;;;;;;4954136;29;20062;-94
2022/06/02 03:22:17;;;;;;;10.20;7.90;;;17.60;1.00;;;;;;4956989;29;20469;-94
2022/06/02 03:24:46;;;;;;;9.00;7.72;;;17.70;1.00;;;;;;4944342;28;20027;-94
2022/06/02 03:27:14;;;;;;;7.75;6.90;;;17.70;1.00;;;;;;4975121;28;20034;-94
2022/06/02 03:29:55;;;;;;;8.98;7.38;;;17.50;1.00;;;;;;4938145;29;20035;-95
2022/06/02 03:32:45;;;;;;;8.25;7.35;;;17.50;1.00;;;;;;4956315;29;20027;-95
2022/06/02 03:35:14;;;;;;;9.40;7.80;;;17.40;1.00;;;;;;4961582;28;20035;-95
2022/06/02 03:37:55;;;;;;;12.35;7.85;;;17.50;1.00;;;;;;4957223;28;20113;-95
2022/06/02 03:40:43;;;;;;;12.30;8.38;;;17.60;1.00;;;;;;4938540;29;20034;-96
2022/06/02 03:43:17;;;;;;;11.27;7.78;;;17.50;1.00;;;;;;4937069;29;20499;-95
2022/06/02 03:46:08;;;;;;;10.85;8.52;;;17.60;1.00;;;;;;4941449;29;20034;-95
2022/06/02 03:49:14;;;;;;;12.27;8.35;;;17.60;1.00;;;;;;4957461;28;20119;-95
2022/06/02 03:51:54;;;;;;;10.88;8.30;;;17.60;1.00;;;;;;4937972;29;20067;-95
2022/06/02 03:54:45;;;;;;;8.85;7.78;;;17.60;1.00;;;;;;4951644;28;20055;-95
2022/06/02 03:57:13;;;;;;;11.02;7.60;;;17.40;1.00;;;;;;4959114;28;20048;-95
2022/06/02 03:59:54;;;;;;;9.90;7.85;;;17.30;1.00;;;;;;4943884;28;20514;-95
2022/06/02 04:02:34;;;;;;;9.85;8.20;;;17.30;1.00;;;;;;4939991;29;20122;-95
2022/06/02 04:05:27;;;;;;;9.10;8.20;;;17.40;1.00;;;;;;4962102;28;20059;-94
2022/06/02 04:08:09;;;;;;;13.73;8.90;;;17.40;1.00;;;;;;4946485;28;20034;-95
2022/06/02 04:10:53;;;;;;;13.10;9.10;;;17.40;1.00;;;;;;4971501;28;20023;-95
2022/06/02 04:13:40;;;;;;;11.88;9.45;;;17.40;1.00;;;;;;4956048;28;20042;-94
2022/06/02 04:16:29;;;;;;;12.15;9.75;;;17.50;1.00;;;;;;4957340;28;20055;-95
2022/06/02 04:22:24;;;;;;;12.02;8.43;;;17.60;1.00;;;;;;4942558;28;20054;-96
2022/06/02 04:25:08;;;;;;;15.70;9.63;;;17.40;1.00;;;;;;4956068;28;20043;-95
2022/06/02 04:27:55;;;;;;;12.02;8.65;;;17.50;1.00;;;;;;4940526;29;20035;-95
2022/06/02 04:30:42;;;;;;;13.45;7.85;;;17.70;1.00;;;;;;4954708;29;20043;-95
2022/06/02 04:33:26;;;;;;;13.68;8.68;;;17.80;1.00;;;;;;4936989;29;20031;-94
2022/06/02 04:36:30;;;;;;;11.90;8.27;;;17.80;1.00;;;;;;4951226;28;20031;-95
2022/06/02 04:39:08;;;;;;;11.32;8.48;;;17.80;1.00;;;;;;4920128;29;20035;-94
2022/06/02 04:42:01;;;;;;;12.75;8.80;;;17.90;1.00;;;;;;4953619;29;20058;-94
2022/06/02 04:44:53;;;;;;;10.27;8.88;;;18.00;1.00;;;;;;4936862;29;20036;-94
2022/06/02 04:47:36;;;;;;;9.55;8.52;;;17.90;1.00;;;;;;4852417;29;20558;-93
2022/06/02 04:50:18;;;;;;;11.02;8.90;;;17.80;1.00;;;;;;4868465;29;20048;-94
2022/06/02 04:53:17;;;;;;;13.07;9.30;;;17.80;1.00;;;;;;4861921;29;20041;-94
2022/06/02 04:56:01;;;;;;;13.30;9.90;;;17.80;1.00;;;;;;4891154;29;20040;-94
2022/06/02 04:58:45;;;;;;;11.07;9.25;;;17.70;1.00;;;;;;4884563;29;20036;-95
2022/06/02 05:01:22;;;;;;;13.57;10.63;;;17.60;1.00;;;;;;4870834;29;20076;-94
2022/06/02 05:03:58;;;;;;;15.82;12.02;;;17.40;1.00;;;;;;4872106;29;20034;-94
2022/06/02 05:07:04;;;;;;;13.55;12.27;;;17.30;1.00;;;;;;4861430;29;20036;-94
2022/06/02 05:09:52;;;;;;;13.55;11.23;;;17.40;1.00;;;;;;4847866;29;20029;-94
2022/06/02 05:12:29;;;;;;;12.57;11.13;;;17.30;1.00;;;;;;4872426;29;20045;-94
2022/06/02 05:15:21;;;;;;;12.45;11.07;;;17.40;1.00;;;;;;4874443;29;20060;-94
2022/06/02 05:18:22;;;;;;;11.02;9.90;;;17.40;1.00;;;;;;4876395;29;20101;-93
2022/06/02 05:21:03;;;;;;;10.52;9.25;;;17.60;1.00;;;;;;4876518;29;20490;-91
2022/06/02 05:23:55;;;;;;;11.20;9.82;;;17.60;1.00;;;;;;4877671;29;20519;-94
2022/06/02 05:26:24;;;;;;;11.80;10.05;;;17.40;1.00;;;;;;4941219;29;20466;-93
2022/06/02 05:29:36;;;;;;;14.20;10.63;;;17.60;1.00;;;;;;4955351;28;20034;-92
2022/06/02 05:32:13;;;;;;;12.68;10.13;;;17.70;1.00;;;;;;4958003;28;20396;-93
2022/06/02 05:34:56;;;;;;;10.88;9.43;;;17.70;1.00;;;;;;4938399;28;20047;-92
2022/06/02 05:37:49;;;;;;;15.68;9.15;;;17.70;1.00;;;;;;4943017;28;20043;-92
2022/06/02 05:40:18;;;;;;;10.50;8.63;;;17.60;1.00;;;;;;4964632;28;20031;-91
2022/06/02 05:42:56;;;;;;;9.02;8.10;;;17.70;1.00;;;;;;4948425;29;20494;-94
2022/06/02 05:45:27;;;;;;;12.45;8.68;;;17.60;1.00;;;;;;4951375;28;20101;-91
2022/06/02 05:48:01;;;;;;;12.25;8.80;;;17.40;1.00;;;;;;4960851;28;20023;-92
2022/06/02 05:50:41;;;;;;;11.02;8.75;;;17.50;1.00;;;;;;4956105;28;20027;-93
2022/06/02 05:53:49;;;;;;;13.23;7.95;;;17.60;1.00;;;;;;4947697;28;20042;-93
2022/06/02 05:56:20;;;;;;;13.23;9.02;;;18.00;1.00;;;;;;4955921;28;20620;-92
2022/06/02 05:59:05;;;;;;;8.93;8.02;;;18.10;1.00;;;;;;4934502;29;20035;-93
2022/06/02 06:02:08;;;;;;;12.10;8.45;;;18.00;1.00;;;;;;4957341;28;20035;-93
2022/06/02 06:04:33;;;;;;;8.80;7.57;;;18.00;1.00;;;;;;4938876;29;20113;-90
2022/06/02 06:07:13;;;;;;;8.60;7.72;;;17.90;1.00;;;;;;4952689;28;20126;-91
2022/06/02 06:09:58;;;;;;;12.00;8.07;;;18.00;1.00;;;;;;4936145;28;20035;-92
2022/06/02 06:12:51;;;;;;;8.48;7.65;;;18.20;1.00;;;;;;4967193;28;20118;-93
2022/06/02 06:15:29;;;;;;;9.52;8.02;;;18.70;1.00;;;;;;4966942;28;20045;-92
2022/06/02 06:18:08;;;;;;;10.35;7.85;;;18.80;1.00;;;;;;4965956;28;20058;-91
2022/06/02 06:20:54;;;;;;;13.63;8.80;;;18.70;1.00;;;;;;4960315;28;20069;-92
2022/06/02 06:23:41;;;;;;;10.88;8.25;;;18.70;1.00;;;;;;4958869;28;20519;-92
2022/06/02 06:26:38;;;;;;;10.10;8.65;;;18.80;1.00;;;;;;4962170;28;20031;-91
2022/06/02 06:29:27;;;;;;;9.40;8.48;;;18.80;1.00;;;;;;4962123;28;20511;-91
2022/06/02 06:32:17;;;;;;;9.50;8.40;;;18.90;1.00;;;;;;4959722;28;20035;-94
2022/06/02 06:35:12;;;;;;;9.70;8.70;;;19.00;1.00;;;;;;4960029;28;20122;-96
2022/06/02 06:38:11;;;;;;;8.75;7.88;;;19.30;1.00;;;;;;4859623;29;20045;-93
2022/06/02 06:41:08;;;;;;;8.63;7.72;;;19.50;1.00;;;;;;4871360;29;20033;-93
2022/06/02 06:43:43;;;;;;;9.93;7.93;;;19.80;1.00;;;;;;4870583;29;20045;-93
2022/06/02 06:46:21;;;;;;;10.73;7.55;;;19.80;1.00;;;;;;4863597;29;20112;-93
2022/06/02 06:49:05;;;;;;;11.80;7.15;;;19.80;1.00;;;;;;4864951;29;20121;-93
2022/06/02 06:51:57;;;;;;;11.65;8.40;;;19.80;1.00;;;;;;4860039;29;20046;-93
2022/06/02 06:55:11;;;;;;;10.18;8.57;;;19.80;1.00;;;;;;4860041;29;20045;-93
2022/06/02 06:57:45;;;;;;;10.88;9.18;;;20.00;1.00;;;;;;4827556;29;20046;-93
2022/06/02 07:00:24;;;;;;;11.30;9.18;;;20.30;1.00;;;;;;4841851;29;20053;-93
2022/06/02 07:03:11;;;;;;;9.63;8.63;;;20.70;1.00;;;;;;4839194;29;20050;-93
2022/06/02 07:05:51;;;;;;;8.80;7.90;;;21.00;1.00;;;;;;4841574;29;20038;-93
2022/06/02 07:08:33;;;;;;;10.73;8.00;;;20.90;1.00;;;;;;4840783;29;20038;-92
2022/06/02 07:14:45;;;;;;;13.52;8.60;;;20.80;1.00;;;;;;4853500;29;20054;-92
2022/06/02 07:17:47;;;;;;;9.63;8.20;;;21.20;1.00;;;;;;4863036;29;20042;-92
2022/06/02 07:20:12;;;;;;;11.82;8.25;;;21.80;1.00;;;;;;4863418;29;20499;-92
2022/06/02 07:22:42;;;;;;;12.00;8.35;;;21.90;1.00;;;;;;4862837;29;20073;-92
2022/06/02 07:25:42;;;;;;;10.18;9.10;;;20.90;1.00;;;;;;4863122;29;20040;-91
2022/06/02 07:28:22;;;;;;;9.68;8.55;;;21.10;1.00;;;;;;4851113;29;20041;-92
2022/06/02 07:31:21;;;;;;;10.07;9.00;;;21.10;1.00;;;;;;4859778;29;20097;-92
2022/06/02 07:34:17;;;;;;;12.23;9.45;;;21.00;1.00;;;;;;4884257;29;20101;-92
2022/06/02 07:37:16;;;;;;;13.95;9.73;;;21.00;1.00;;;;;;4866663;29;20032;-92
2022/06/02 07:39:42;;;;;;;12.50;9.82;;;20.80;1.00;;;;;;4866615;29;20479;-92
2022/06/02 07:42:33;;;;;;;12.52;10.52;;;20.60;1.00;;;;;;4896412;29;20043;-92
2022/06/02 07:45:23;;;;;;;11.38;10.27;;;20.60;1.00;;;;;;4907808;29;20493;-92
2022/06/02 07:47:53;;;;;;;11.95;9.98;;;20.60;1.00;;;;;;4901168;29;20125;-91
2022/06/02 07:50:20;;;;;;;12.32;10.93;;;20.50;1.00;;;;;;4897069;29;20088;-91
2022/06/02 07:53:15;;;;;;;11.15;10.05;;;20.20;1.00;;;;;;4896352;28;20044;-91
2022/06/02 07:55:49;;;;;;;12.20;10.88;;;19.90;1.00;;;;;;4947844;29;20070;-91
2022/06/02 07:58:25;;;;;;;17.25;11.05;;;20.00;1.00;;;;;;4958168;28;20085;-92
2022/06/02 08:01:01;;;;;;;14.65;10.70;;;20.00;1.00;;;;;;4956736;28;20035;-92
2022/06/02 08:04:03;;;;;;;12.50;10.27;;;20.00;1.00;;;;;;4952081;28;20032;-91
2022/06/02 08:06:42;;;;;;;14.73;10.73;;;20.10;1.00;;;;;;4938306;29;20044;-92
2022/06/02 08:09:29;;;;;;;13.45;10.73;;;20.20;1.00;;;;;;4950068;28;20076;-92
2022/06/02 08:12:21;;;;;;;11.15;9.95;;;20.20;1.00;;;;;;4966355;28;20471;-92
2022/06/02 08:15:14;;;;;;;11.50;10.40;;;20.40;1.00;;;;;;4958074;28;20114;-92
2022/06/02 08:18:22;;;;;;;13.45;10.70;;;20.70;1.00;;;;;;4957175;28;20051;-93
2022/06/02 08:21:17;;;;;;;15.00;9.90;;;21.30;1.00;;;;;;4958402;28;20035;-92
2022/06/02 08:24:13;;;;;;;10.88;9.80;;;21.50;1.00;;;;;;4957728;28;20405;-93
2022/06/02 08:27:00;;;;;;;14.70;10.90;;;21.60;1.00;;;;;;4951858;28;20043;-92
2022/06/02 08:30:05;;;;;;;10.88;9.88;;;21.50;1.00;;;;;;4958323;28;20126;-92
2022/06/02 08:32:36;;;;;;;14.07;9.88;;;21.20;1.00;;;;;;4964393;28;20178;-92
2022/06/02 08:35:29;;;;;;;13.07;9.70;;;21.00;1.00;;;;;;4959948;28;20039;-91
2022/06/02 08:38:22;;;;;;;11.02;9.93;;;21.00;1.00;;;;;;4957080;28;20042;-92
2022/06/02 08:41:28;;;;;;;10.73;9.43;;;21.00;1.00;;;;;;4957262;28;20488;-92
2022/06/02 08:44:25;;;;;;;11.70;10.48;;;20.80;1.00;;;;;;4955202;28;20115;-92
2022/06/02 08:47:08;;;;;;;14.55;10.80;;;20.80;1.00;;;;;;4957095;28;20166;-92
2022/06/02 08:49:40;;;;;;;12.50;10.55;;;21.10;1.00;;;;;;4956912;28;20031;-92
2022/06/02 08:52:30;;;;;;;12.57;11.10;;;21.40;1.00;;;;;;4934046;28;20035;-92
2022/06/02 08:55:19;;;;;;;12.05;10.75;;;21.50;1.00;;;;;;4954913;28;20039;-93
2022/06/02 08:57:56;;;;;;;13.68;11.82;;;21.90;1.00;;;;;;4941323;28;20038;-92
2022/06/02 09:00:45;;;;;;;15.23;11.63;;;22.60;1.00;;;;;;4953724;28;20039;-92
2022/06/02 09:03:29;;;;;;;20.13;12.27;;;22.90;1.00;;;;;;4949737;28;20035;-92
2022/06/02 09:06:16;;;;;;;20.38;13.85;;;22.60;1.00;;;;;;4961669;28;20039;-92
2022/06/02 09:09:00;;;;;;;29.55;16.88;;;22.60;1.00;;;;;;4957078;28;20035;-92
2022/06/02 09:11:42;;;;;;;18.83;12.55;;;22.50;1.00;;;;;;4957700;28;20503;-92
2022/06/02 09:14:36;;;;;;;16.55;12.55;;;22.50;1.00;;;;;;4939268;29;20104;-92
2022/06/02 09:17:35;;;;;;;19.58;13.90;;;22.30;1.00;;;;;;4954810;28;20058;-92
2022/06/02 09:20:30;;;;;;;19.58;12.93;;;22.20;1.00;;;;;;4875575;29;20418;-91
2022/06/02 09:23:36;;;;;;;23.00;15.90;;;22.20;1.00;;;;;;4876015;29;20136;-92
2022/06/02 09:26:37;;;;;;;12.82;11.52;;;22.30;1.00;;;;;;4875839;29;20105;-92
2022/06/02 09:29:29;;;;;;;26.02;15.93;;;22.80;1.00;;;;;;4875595;29;20138;-92
2022/06/02 09:32:13;;;;;;;13.20;11.52;;;23.30;1.00;;;;;;4871596;29;20148;-92
2022/06/02 09:34:57;;;;;;;10.80;9.73;;;23.60;1.00;;;;;;4875786;29;20501;-92
2022/06/02 09:37:52;;;;;;;12.02;9.93;;;23.50;1.00;;;;;;4875822;29;20578;-91
2022/06/02 09:40:44;;;;;;;11.88;10.63;;;23.20;1.00;;;;;;4859838;29;20534;-92
2022/06/02 09:43:35;;;;;;;12.68;10.18;;;23.40;1.00;;;;;;4873525;29;20514;-92
2022/06/02 09:46:28;;;;;;;12.73;9.98;;;23.60;1.00;;;;;;4875603;29;20033;-91
2022/06/02 09:49:13;;;;;;;12.60;10.73;;;24.00;1.00;;;;;;4875479;29;20086;-91
2022/06/02 09:52:16;;;;;;;10.98;9.70;;;23.10;1.00;;;;;;4875548;29;20028;-92
2022/06/02 09:55:06;;;;;;;18.55;11.25;;;22.90;1.00;;;;;;4839600;29;20559;-91
2022/06/02 09:57:56;;;;;;;11.10;9.80;;;22.80;1.00;;;;;;4903869;29;20040;-92
2022/06/02 10:00:34;;;;;;;10.23;9.13;;;22.90;1.00;;;;;;4927556;29;20043;-92
2022/06/02 10:03:11;;;;;;;10.77;9.48;;;23.10;1.00;;;;;;4928710;29;20035;-92
2022/06/02 10:06:06;;;;;;;11.43;9.15;;;23.40;1.00;;;;;;4921105;29;20044;-91
2022/06/02 10:09:07;;;;;;;10.85;9.13;;;23.50;1.00;;;;;;4918938;29;20055;-92
2022/06/02 10:12:54;;;;;;;10.10;9.00;;;23.50;1.00;;;;;;4920936;29;20064;-92
2022/06/02 10:15:16;;;;;;;11.43;8.95;;;23.40;1.00;;;;;;4920247;29;20044;-92
2022/06/02 10:18:12;;;;;;;10.73;8.50;;;23.00;1.00;;;;;;4919754;29;20036;-91
2022/06/02 10:20:52;;;;;;;12.25;8.68;;;22.70;1.00;;;;;;4919917;29;20040;-92
2022/06/02 10:23:53;;;;;;;10.97;8.47;;;22.40;1.00;;;;;;4876747;29;1140023;-92
2022/06/02 10:26:48;;;;;;;11.07;8.30;;;22.50;1.00;;;;;;4916835;29;20393;-92
2022/06/02 10:29:33;;;;;;;10.60;8.13;;;22.70;1.00;;;;;;4919478;28;20512;-92
2022/06/02 10:32:46;;;;;;;10.75;8.07;;;22.60;99.90;;;;;;4962233;28;20122;-91
2022/06/02 10:35:39;;;;;;;11.00;8.30;;;22.60;1.00;;;;;;4956414;28;20040;-91
2022/06/02 10:38:28;;;;;;;10.73;8.77;;;22.40;1.00;;;;;;4959274;28;20091;-91
2022/06/02 10:41:11;;;;;;;9.57;7.95;;;22.50;1.00;;;;;;4940998;29;20039;-92
2022/06/02 10:43:39;;;;;;;11.40;8.55;;;22.40;1.00;;;;;;4952078;29;20023;-92
2022/06/02 10:46:26;;;;;;;10.65;9.20;;;22.20;1.00;;;;;;4957261;28;20035;-92
2022/06/02 10:49:07;;;;;;;13.88;9.57;;;21.80;1.00;;;;;;4961161;28;20030;-91
2022/06/02 10:52:00;;;;;;;11.07;10.02;;;21.50;1.00;;;;;;4940876;28;20032;-91
2022/06/02 10:55:07;;;;;;;11.15;10.13;;;21.30;1.00;;;;;;4953096;29;20064;-92
2022/06/02 10:58:03;;;;;;;12.43;10.68;;;21.00;1.00;;;;;;4940704;28;20035;-91
2022/06/02 11:00:41;;;;;;;12.57;10.55;;;21.00;1.00;;;;;;4939776;28;20059;-92
2022/06/02 11:03:44;;;;;;;11.35;10.27;;;21.10;1.00;;;;;;4959002;28;20076;-91
2022/06/02 11:06:28;;;;;;;12.30;10.70;;;21.30;1.00;;;;;;4968745;28;20086;-92
2022/06/02 11:09:31;;;;;;;11.88;10.77;;;21.70;1.00;;;;;;4954746;28;20118;-92
2022/06/02 11:12:21;;;;;;;12.70;9.77;;;22.00;1.00;;;;;;4967890;28;20495;-92
2022/06/02 11:15:11;;;;;;;11.48;10.25;;;21.90;1.00;;;;;;4957124;28;20567;-92
2022/06/02 11:18:10;;;;;;;11.75;10.30;;;22.00;1.00;;;;;;4960799;28;20047;-92
2022/06/02 11:21:04;;;;;;;13.32;10.27;;;22.70;1.00;;;;;;4961534;28;20050;-92
2022/06/02 11:23:48;;;;;;;12.32;9.85;;;23.10;1.00;;;;;;4958149;28;20043;-92
2022/06/02 11:26:23;;;;;;;11.35;9.48;;;23.10;1.00;;;;;;4957058;28;20031;-92
2022/06/02 11:28:57;;;;;;;12.13;9.68;;;23.00;1.00;;;;;;4958305;28;20041;-91
2022/06/02 11:31:56;;;;;;;12.13;10.90;;;23.20;1.00;;;;;;4956425;28;20023;-91
2022/06/02 11:34:46;;;;;;;13.65;10.63;;;22.40;1.00;;;;;;4958195;28;20047;-92
2022/06/02 11:37:39;;;;;;;14.77;10.52;;;21.80;1.00;;;;;;4964638;28;20027;-91
2022/06/02 11:40:42;;;;;;;12.50;10.60;;;21.30;1.00;;;;;;4957909;28;20023;-92
2022/06/02 11:43:25;;;;;;;12.93;11.57;;;21.00;1.00;;;;;;4963345;28;20037;-91
2022/06/02 11:46:15;;;;;;;13.23;11.20;;;21.20;1.00;;;;;;4956533;28;20038;-92
2022/06/02 11:48:59;;;;;;;13.27;11.15;;;21.10;1.00;;;;;;4940886;28;20031;-91
2022/06/02 11:52:22;;;;;;;12.50;11.20;;;21.20;1.00;;;;;;4969202;28;20027;-92
2022/06/02 11:55:28;;;;;;;12.80;11.35;;;21.60;1.00;;;;;;4846449;29;20045;-92
2022/06/02 11:58:09;;;;;;;13.07;10.45;;;22.30;1.00;;;;;;4851445;29;20093;-92
2022/06/02 12:00:53;;;;;;;12.73;9.90;;;22.20;1.00;;;;;;4845105;29;20514;-92
2022/06/02 12:03:33;;;;;;;12.07;9.52;;;22.00;1.00;;;;;;4842436;29;20120;-91
2022/06/02 12:06:35;;;;;;;10.13;9.23;;;22.30;1.00;;;;;;4842999;29;20041;-92
2022/06/02 12:09:46;;;;;;;11.23;10.07;;;22.80;1.00;;;;;;4853131;29;20038;-92
2022/06/02 12:12:23;;;;;;;11.65;9.77;;;23.10;1.00;;;;;;4856531;29;20093;-92
2022/06/02 12:15:28;;;;;;;12.43;9.10;;;23.10;1.00;;;;;;4858650;29;20498;-92
2022/06/02 12:18:15;;;;;;;10.35;9.15;;;23.60;1.00;;;;;;4857196;29;20045;-91
2022/06/02 12:20:46;;;;;;;9.45;8.55;;;24.10;1.00;;;;;;4856713;29;20049;-92
2022/06/02 12:23:45;;;;;;;9.38;8.13;;;24.90;1.00;;;;;;4857903;29;20061;-91
2022/06/02 12:26:36;;;;;;;13.07;7.80;;;28.50;1.00;;;;;;4933665;28;20051;-91
2022/06/02 12:29:20;;;;;;;10.93;7.03;;;29.10;99.90;;;;;;4956414;28;20039;-90
2022/06/02 12:32:09;;;;;;;10.18;7.03;;;29.40;99.90;;;;;;4961891;28;20031;-89
2022/06/02 12:34:59;;;;;;;7.53;6.57;;;28.90;99.90;;;;;;4958048;28;20497;-90
2022/06/02 12:37:43;;;;;;;9.57;6.97;;;28.20;99.90;;;;;;4942204;28;20047;-90
2022/06/02 12:40:36;;;;;;;8.85;7.15;;;27.90;99.90;;;;;;4954257;28;20027;-89
2022/06/02 12:43:40;;;;;;;8.35;6.30;;;29.00;99.90;;;;;;4967789;28;20030;-90
2022/06/02 12:46:30;;;;;;;8.52;5.85;;;28.30;99.90;;;;;;4844857;29;20403;-90
2022/06/02 12:49:12;;;;;;;6.30;5.70;;;28.30;99.90;;;;;;4858188;29;20093;-90
2022/06/02 12:51:49;;;;;;;8.88;5.88;;;28.30;99.90;;;;;;4842980;29;20061;-90
2022/06/02 12:54:38;;;;;;;6.55;5.20;;;27.10;99.90;;;;;;4856590;29;20377;-90
2022/06/02 12:57:42;;;;;;;6.75;4.95;;;26.90;99.90;;;;;;4846591;29;20086;-90
2022/06/02 13:00:27;;;;;;;6.20;5.65;;;27.60;99.90;;;;;;4856292;29;20041;-93
2022/06/02 13:03:14;;;;;;;6.35;5.70;;;28.10;99.90;;;;;;4864653;29;20038;-95
2022/06/02 13:06:04;;;;;;;6.80;5.68;;;27.30;99.90;;;;;;4851397;29;20049;-95
2022/06/02 13:08:39;;;;;;;6.22;5.72;;;26.40;99.90;;;;;;4856216;29;20037;-90
2022/06/02 13:11:44;;;;;;;8.35;6.13;;;25.90;99.90;;;;;;4854838;29;20041;-91
2022/06/02 13:14:36;;;;;;;9.88;5.78;;;25.50;99.90;;;;;;4854551;29;20038;-90
2022/06/02 13:17:17;;;;;;;6.05;5.18;;;26.00;99.90;;;;;;4851266;29;20129;-90
2022/06/02 13:20:19;;;;;;;8.65;5.82;;;26.70;99.90;;;;;;4861729;29;20030;-90
2022/06/02 13:23:15;;;;;;;8.85;6.43;;;26.10;99.90;;;;;;4909861;28;20050;-90
2022/06/02 13:25:56;;;;;;;9.43;7.30;;;26.10;99.90;;;;;;4962119;28;20023;-90
2022/06/02 13:28:40;;;;;;;10.27;6.85;;;26.20;99.90;;;;;;4958933;28;20035;-90
2022/06/02 13:31:09;;;;;;;8.07;6.60;;;26.40;99.90;;;;;;4960583;28;20177;-90
2022/06/02 13:34:12;;;;;;;8.68;6.53;;;27.20;99.90;;;;;;4966328;28;20110;-90
2022/06/02 13:36:41;;;;;;;7.55;6.55;;;27.40;99.90;;;;;;4940418;28;20099;-91
2022/06/02 13:39:31;;;;;;;8.55;6.30;;;27.30;99.90;;;;;;4960209;28;20492;-90
2022/06/02 13:42:20;;;;;;;13.65;6.00;;;28.10;99.90;;;;;;4969715;28;20030;-91
2022/06/02 13:45:11;;;;;;;7.03;6.30;;;27.80;99.90;;;;;;4961368;28;20019;-90
2022/06/02 13:48:11;;;;;;;9.10;6.30;;;28.20;99.90;;;;;;4969866;28;20034;-90
2022/06/02 13:51:15;;;;;;;8.32;6.75;;;27.90;99.90;;;;;;4956086;29;20555;-90
2022/06/02 13:57:30;;;;;;;6.13;5.53;;;28.70;99.90;;;;;;4966365;28;20125;-90
2022/06/02 14:00:33;;;;;;;10.35;5.28;;;30.50;99.90;;;;;;4969109;28;20121;-90
2022/06/02 14:03:35;;;;;;;7.38;5.85;;;31.20;99.90;;;;;;4970741;28;20061;-87
2022/06/02 14:06:18;;;;;;;6.35;5.70;;;30.40;99.90;;;;;;4956654;28;20435;-88
2022/06/02 14:08:57;;;;;;;9.48;6.13;;;29.70;99.90;;;;;;4965626;28;20439;-87
2022/06/02 14:11:53;;;;;;;7.47;6.25;;;29.30;99.90;;;;;;4960133;28;20059;-87
2022/06/02 14:14:52;;;;;;;7.10;6.40;;;29.40;99.90;;;;;;4960289;28;20035;-86
2022/06/02 14:17:38;;;;;;;10.13;6.20;;;28.70;99.90;;;;;;4959078;28;20047;-87
2022/06/02 14:20:12;;;;;;;8.73;6.63;;;29.30;99.90;;;;;;4940412;29;20387;-88
2022/06/02 14:23:09;;;;;;;10.65;6.40;;;29.40;99.90;;;;;;4954824;28;20047;-87
2022/06/02 14:26:04;;;;;;;7.53;4.85;;;29.10;99.90;;;;;;4942544;29;20027;-87
2022/06/02 14:28:52;;;;;;;8.45;5.60;;;29.00;99.90;;;;;;4942729;28;20057;-86
2022/06/02 14:31:24;;;;;;;8.50;4.63;;;29.00;99.90;;;;;;4941801;28;20387;-87
2022/06/02 14:34:03;;;;;;;8.30;4.80;;;29.60;99.90;;;;;;4957591;28;20031;-87
2022/06/02 14:36:47;;;;;;;6.70;4.95;;;29.80;99.90;;;;;;4940245;28;20079;-87
2022/06/02 14:39:36;;;;;;;5.40;4.88;;;28.80;99.90;;;;;;4968561;28;20042;-87